.
WxDataArchive / Data Records for 2010-02-03
2010-02-02 February 2010 2010-02-04

Data Records for Wednesday, 03 February 2010

Time	Temp	Chill	HIndex	Humid	Dewpt	 Wind 	HiWind	WindDir	Rain 	Barom 
-----	----	-----	------	-----	-----	------	------	-------	-----	----- 
00:00	31.6	31.6	31.6	84	27.3	1	3	270	0.00	30.073 
00:05	31.6	31.6	31.6	84	27.3	1	4	248	0.00	30.073 
00:10	31.6	31.6	31.6	84	27.3	1	3	248	0.00	30.073 
00:15	31.6	31.6	31.6	84	27.3	1	3	248	0.00	30.072 
00:20	31.6	31.6	31.6	84	27.3	1	2	248	0.00	30.072 
00:25	31.6	31.6	31.6	84	27.3	1	2	248	0.00	30.072 
00:30	31.6	31.6	31.6	84	27.3	1	4	315	0.00	30.074 
00:35	31.6	31.6	31.6	84	27.3	2	3	248	0.00	30.074 
00:40	31.5	31.5	31.5	84	27.2	1	4	248	0.00	30.074 
00:45	31.5	31.5	31.5	84	27.2	1	3	248	0.00	30.074 
00:50	31.5	31.5	31.5	84	27.2	1	3	248	0.00	30.074 
00:55	31.5	31.5	31.5	84	27.2	1	3	248	0.00	30.074 
01:00	31.5	31.5	31.5	84	27.2	1	4	248	0.00	30.072 
01:05	31.5	31.5	31.5	84	27.2	1	3	315	0.00	30.072 
01:10	31.3	31.3	31.3	84	27.0	1	3	225	0.00	30.072 
01:15	31.3	31.3	31.3	84	27.0	2	3	270	0.00	30.081 
01:20	31.3	31.3	31.3	84	27.0	1	3	248	0.00	30.081 
01:25	31.3	31.3	31.3	84	27.0	1	3	248	0.00	30.081 
01:30	31.3	31.3	31.3	84	27.0	2	3	248	0.00	30.085 
01:35	31.3	31.3	31.3	84	27.0	2	4	248	0.00	30.085 
01:40	31.2	31.2	31.2	84	26.9	1	3	248	0.00	30.085 
01:45	31.2	31.2	31.2	84	26.9	2	3	248	0.00	30.086 
01:50	31.2	31.2	31.2	84	26.9	1	3	292	0.00	30.086 
01:55	31.2	31.2	31.2	84	26.9	2	4	270	0.00	30.086 
02:00	31.3	31.3	31.3	84	27.0	1	4	270	0.00	30.097 
02:05	31.3	31.3	31.3	84	27.0	1	2	270	0.00	30.097 
02:10	31.3	31.3	31.3	84	27.0	1	4	248	0.00	30.097 
02:15	31.3	31.3	31.3	84	27.0	1	2	248	0.00	30.102 
02:20	31.5	31.5	31.5	84	27.2	1	3	248	0.00	30.102 
02:25	31.5	31.5	31.5	84	27.2	1	3	248	0.00	30.102 
02:30	31.5	31.5	31.5	84	27.2	1	3	248	0.00	30.102 
02:35	31.5	31.5	31.5	85	27.5	1	4	248	0.00	30.102 
02:40	31.5	31.5	31.5	85	27.5	1	2	248	0.00	30.102 
02:45	31.5	31.5	31.5	85	27.5	1	2	248	0.00	30.108 
02:50	31.5	31.5	31.5	85	27.5	1	4	248	0.00	30.108 
02:55	31.3	31.3	31.3	84	27.0	3	7	248	0.00	30.108 
03:00	31.0	31.0	31.0	84	26.7	2	5	270	0.00	30.119 
03:05	30.9	30.9	30.9	84	26.6	3	7	270	0.00	30.119 
03:10	30.6	30.6	30.6	84	26.4	2	4	270	0.00	30.119 
03:15	30.4	30.4	30.4	84	26.2	2	4	248	0.00	30.131 
03:20	30.1	30.1	30.1	84	25.9	2	5	270	0.00	30.131 
03:25	30.1	30.1	30.1	83	25.6	3	6	292	0.00	30.131 
03:30	30.0	30.0	30.0	83	25.5	2	3	248	0.00	30.136 
03:35	30.0	30.0	30.0	83	25.5	2	4	248	0.00	30.136 
03:40	30.0	30.0	30.0	83	25.5	2	7	270	0.00	30.136 
03:45	30.0	30.0	30.0	83	25.5	2	6	248	0.00	30.136 
03:50	30.0	30.0	30.0	83	25.5	2	5	248	0.00	30.136 
03:55	30.0	30.0	30.0	83	25.5	1	3	248	0.00	30.136 
04:00	30.0	30.0	30.0	83	25.5	1	3	248	0.00	30.140 
04:05	30.0	30.0	30.0	83	25.5	1	4	270	0.00	30.140 
04:10	30.0	30.0	30.0	83	25.5	2	4	248	0.00	30.140 
04:15	30.0	30.0	30.0	83	25.5	1	3	248	0.00	30.145 
04:20	30.0	30.0	30.0	83	25.5	2	5	248	0.00	30.145 
04:25	30.0	30.0	30.0	83	25.5	2	4	248	0.00	30.145 
04:30	30.0	30.0	30.0	83	25.5	1	3	248	0.00	30.146 
04:35	29.8	29.8	29.8	83	25.3	1	3	270	0.00	30.146 
04:40	29.8	29.8	29.8	83	25.3	1	3	270	0.00	30.146 
04:45	29.8	29.8	29.8	83	25.3	1	3	270	0.00	30.148 
04:50	29.8	29.8	29.8	83	25.3	0	2	270	0.00	30.148 
04:55	29.8	29.8	29.8	83	25.3	0	2	270	0.00	30.148 
05:00	29.8	29.8	29.8	83	25.3	0	2	270	0.00	30.152 
05:05	29.8	29.8	29.8	83	25.3	1	3	292	0.00	30.152 
05:10	29.8	29.8	29.8	83	25.3	1	3	248	0.00	30.152 
05:15	29.8	29.8	29.8	83	25.3	0	3	248	0.00	30.164 
05:20	29.7	29.7	29.7	82	24.9	2	7	248	0.00	30.164 
05:25	29.5	29.5	29.5	81	24.4	2	6	248	0.00	30.164 
05:30	29.4	29.4	29.4	81	24.3	2	4	248	0.00	30.167 
05:35	29.3	29.3	29.3	81	24.2	1	3	270	0.00	30.167 
05:40	29.3	29.3	29.3	80	23.9	2	4	248	0.00	30.167 
05:45	29.1	29.1	29.1	80	23.7	2	5	270	0.00	30.173 
05:50	29.0	29.0	29.0	80	23.6	2	6	248	0.00	30.173 
05:55	29.0	29.0	29.0	80	23.6	1	5	248	0.00	30.173 
06:00	28.8	28.8	28.8	79	23.1	2	4	270	0.00	30.183 
06:05	28.7	28.7	28.7	79	23.0	2	4	270	0.00	30.183 
06:10	28.5	28.5	28.5	78	22.5	2	5	270	0.00	30.183 
06:15	28.4	28.4	28.4	77	22.1	2	4	270	0.00	30.194 
06:20	28.2	28.2	28.2	76	21.6	1	3	270	0.00	30.194 
06:25	27.9	27.9	27.9	75	21.0	2	5	270	0.00	30.194 
06:30	27.9	27.9	27.9	75	21.0	2	5	270	0.00	30.188 
06:35	27.8	27.8	27.8	75	20.9	1	5	248	0.00	30.188 
06:40	27.8	27.8	27.8	76	21.2	1	2	248	0.00	30.188 
06:45	27.8	27.8	27.8	76	21.2	1	4	248	0.00	30.189 
06:50	27.6	27.6	27.6	76	21.0	0	2	248	0.00	30.189 
06:55	27.6	27.6	27.6	77	21.4	0	2	248	0.00	30.189 
07:00	27.5	27.5	27.5	77	21.3	0	1	248	0.00	30.189 
07:05	27.5	27.5	27.5	78	21.6	0	2	248	0.00	30.189 
07:10	27.5	27.5	27.5	78	21.6	1	3	248	0.00	30.189 
07:15	27.3	27.3	27.3	79	21.7	1	2	248	0.00	30.202 
07:20	27.3	27.3	27.3	79	21.7	1	4	248	0.00	30.202 
07:25	27.2	27.2	27.2	80	21.9	1	3	248	0.00	30.202 
07:30	27.2	27.2	27.2	80	21.9	1	2	248	0.00	30.203 
07:35	27.2	27.2	27.2	80	21.9	0	2	248	0.00	30.203 
07:40	27.2	27.2	27.2	80	21.9	1	3	248	0.00	30.203 
07:45	27.0	27.0	27.0	81	22.0	1	4	248	0.00	30.216 
07:50	26.9	26.9	26.9	81	21.9	1	4	248	0.00	30.216 
07:55	26.7	26.7	26.7	81	21.7	1	2	248	0.00	30.216 
08:00	26.6	26.6	26.6	81	21.6	1	3	248	0.00	30.215 
08:05	26.6	26.6	26.6	82	21.9	2	4	248	0.00	30.215 
08:10	26.6	26.6	26.6	82	21.9	2	5	248	0.00	30.215 
08:15	26.4	26.4	26.4	82	21.7	1	3	270	0.00	30.217 
08:20	26.4	26.4	26.4	82	21.7	1	4	270	0.00	30.217 
08:25	26.4	26.4	26.4	82	21.7	1	3	248	0.00	30.217 
08:30	26.4	26.4	26.4	83	22.0	1	4	248	0.00	30.218 
08:35	26.3	26.3	26.3	83	21.9	1	4	248	0.00	30.218 
08:40	26.3	26.3	26.3	83	21.9	1	2	270	0.00	30.218 
08:45	26.3	26.3	26.3	83	21.9	1	3	270	0.00	30.222 
08:50	26.3	26.3	26.3	83	21.9	1	2	270	0.00	30.222 
08:55	26.3	26.3	26.3	83	21.9	1	2	270	0.00	30.222 
09:00	26.1	26.1	26.1	83	21.7	1	3	248	0.00	30.234 
09:05	26.1	26.1	26.1	83	21.7	1	3	248	0.00	30.234 
09:10	26.1	26.1	26.1	84	21.9	1	2	248	0.00	30.234 
09:15	26.3	26.3	26.3	84	22.1	1	2	248	0.00	30.246 
09:20	26.3	26.3	26.3	84	22.1	1	2	248	0.00	30.246 
09:25	26.3	26.3	26.3	84	22.1	1	4	248	0.00	30.246 
09:30	26.3	26.3	26.3	84	22.1	1	3	248	0.00	30.258 
09:35	26.3	26.3	26.3	84	22.1	1	4	248	0.00	30.258 
09:40	26.3	26.3	26.3	84	22.1	1	4	292	0.00	30.258 
09:45	26.4	26.4	26.4	84	22.2	2	5	248	0.00	30.264 
09:50	26.4	26.4	26.4	84	22.2	2	5	248	0.00	30.264 
09:55	26.6	26.6	26.6	85	22.7	1	3	292	0.00	30.264 
10:00	26.6	26.6	26.6	85	22.7	1	5	248	0.00	30.272 
10:05	26.6	26.6	26.6	85	22.7	1	7	248	0.00	30.272 
10:10	26.7	26.7	26.7	84	22.5	1	4	248	0.00	30.272 
10:15	26.9	26.9	26.9	84	22.7	2	4	270	0.00	30.280 
10:20	27.0	27.0	27.0	84	22.8	2	6	248	0.00	30.280 
10:25	27.0	27.0	27.0	84	22.8	1	3	248	0.00	30.280 
10:30	27.2	27.2	27.2	83	22.7	2	6	248	0.00	30.281 
10:35	27.2	27.2	27.2	83	22.7	2	7	248	0.00	30.281 
10:40	27.3	27.3	27.3	83	22.8	2	4	270	0.00	30.281 
10:45	27.3	27.3	27.3	82	22.5	2	6	248	0.00	30.287 
10:50	27.5	27.5	27.5	82	22.7	2	4	270	0.00	30.287 
10:55	27.6	27.6	27.6	82	22.8	2	6	248	0.00	30.287 
11:00	27.8	27.8	27.8	82	23.0	1	3	270	0.00	30.291 
11:05	27.8	27.8	27.8	82	23.0	2	4	270	0.00	30.291 
11:10	27.9	27.9	27.9	82	23.1	2	6	270	0.00	30.291 
11:15	28.1	28.1	28.1	82	23.3	2	6	248	0.00	30.293 
11:20	28.1	28.1	28.1	81	23.0	2	9	248	0.00	30.293 
11:25	28.2	28.2	28.2	81	23.1	1	4	292	0.00	30.293 
11:30	28.4	28.4	28.4	81	23.3	2	4	270	0.00	30.294 
11:35	28.5	28.5	28.5	81	23.4	2	5	225	0.00	30.294 
11:40	28.7	28.7	28.7	81	23.6	1	4	248	0.00	30.294 
11:45	28.7	28.7	28.7	81	23.6	2	5	248	0.00	30.294 
11:50	29.0	29.0	29.0	81	23.9	1	4	248	0.00	30.294 
11:55	29.1	29.1	29.1	80	23.7	1	5	248	0.00	30.294 
12:00	29.4	29.4	29.4	80	24.0	1	6	248	0.00	30.294 
12:05	29.5	29.5	29.5	80	24.1	2	5	248	0.00	30.294 
12:10	29.4	29.4	29.4	79	23.7	2	4	248	0.00	30.294 
12:15	29.5	29.5	29.5	80	24.1	2	4	248	0.00	30.293 
12:20	29.7	29.7	29.7	79	24.0	2	5	248	0.00	30.293 
12:25	30.0	30.0	30.0	79	24.3	2	5	270	0.00	30.293 
12:30	30.1	30.1	30.1	79	24.4	2	5	270	0.00	30.294 
12:35	30.3	30.3	30.3	79	24.6	1	3	248	0.00	30.294 
12:40	30.3	30.3	30.3	78	24.3	2	4	270	0.00	30.294 
12:45	30.3	30.3	30.3	78	24.3	2	3	270	0.00	30.297 
12:50	30.4	30.4	30.4	78	24.4	1	4	248	0.00	30.297 
12:55	30.7	30.7	30.7	78	24.7	1	4	248	0.00	30.297 
13:00	30.9	30.9	30.9	78	24.9	2	3	248	0.00	30.293 
13:05	31.0	31.0	31.0	77	24.7	1	4	248	0.00	30.293 
13:10	31.0	31.0	31.0	77	24.7	1	3	315	0.00	30.293 
13:15	31.2	31.2	31.2	77	24.8	1	3	248	0.00	30.292 
13:20	31.3	31.3	31.3	77	24.9	1	3	248	0.00	30.292 
13:25	31.6	31.6	31.6	76	24.9	1	4	0	0.00	30.292 
13:30	31.9	31.9	31.9	76	25.2	1	3	248	0.00	30.288 
13:35	32.1	32.1	32.1	76	25.4	1	4	225	0.00	30.288 
13:40	32.4	32.4	32.4	75	25.4	1	5	270	0.00	30.288 
13:45	32.4	32.4	32.4	75	25.4	2	5	270	0.00	30.280 
13:50	32.4	32.4	32.4	74	25.1	2	4	292	0.00	30.280 
13:55	32.4	32.4	32.4	75	25.4	1	3	338	0.00	30.280 
14:00	32.2	32.2	32.2	75	25.2	2	4	338	0.01	30.286 
14:05	32.2	32.2	32.2	74	24.9	2	4	338	0.00	30.286 
14:10	32.1	32.1	32.1	75	25.1	1	3	338	0.00	30.286 
14:15	32.1	32.1	32.1	75	25.1	1	4	338	0.00	30.293 
14:20	32.1	32.1	32.1	75	25.1	1	4	338	0.00	30.293 
14:25	32.1	32.1	32.1	75	25.1	1	4	225	0.00	30.293 
14:30	32.1	32.1	32.1	75	25.1	1	3	270	0.00	30.288 
14:35	31.9	31.9	31.9	75	24.9	1	5	270	0.00	30.288 
14:40	31.8	31.8	31.8	75	24.8	1	3	338	0.00	30.288 
14:45	31.5	31.5	31.5	75	24.5	1	2	315	0.00	30.288 
14:50	31.5	31.5	31.5	76	24.8	1	3	315	0.00	30.288 
14:55	31.6	31.6	31.6	76	24.9	1	4	292	0.00	30.288 
15:00	31.6	31.6	31.6	76	24.9	1	4	270	0.00	30.281 
15:05	31.8	31.8	31.8	76	25.1	1	3	248	0.00	30.281 
15:10	31.6	31.6	31.6	75	24.6	1	3	248	0.00	30.281 
15:15	31.8	31.8	31.8	76	25.1	1	2	225	0.00	30.279 
15:20	31.8	31.8	31.8	75	24.8	1	2	270	0.00	30.279 
15:25	31.8	31.8	31.8	75	24.8	0	3	270	0.00	30.279 
15:30	31.8	31.8	31.8	76	25.1	1	3	315	0.00	30.289 
15:35	31.8	31.8	31.8	75	24.8	1	3	270	0.00	30.289 
15:40	31.8	31.8	31.8	75	24.8	1	2	270	0.00	30.289 
15:45	31.9	31.9	31.9	75	24.9	1	2	270	0.00	30.291 
15:50	31.8	31.8	31.8	74	24.5	1	3	248	0.00	30.291 
15:55	31.6	31.6	31.6	75	24.6	1	2	248	0.00	30.291 
16:00	31.6	31.6	31.6	75	24.6	1	2	248	0.00	30.302 
16:05	31.6	31.6	31.6	75	24.6	1	2	248	0.00	30.302 
16:10	31.5	31.5	31.5	76	24.8	1	3	248	0.00	30.302 
16:15	31.5	31.5	31.5	76	24.8	0	2	248	0.00	30.310 
16:20	31.3	31.3	31.3	76	24.6	1	2	292	0.00	30.310 
16:25	31.3	31.3	31.3	76	24.6	1	3	270	0.00	30.310 
16:30	31.2	31.2	31.2	76	24.5	1	3	270	0.00	30.312 
16:35	31.0	31.0	31.0	76	24.3	1	4	270	0.00	30.312 
16:40	30.9	30.9	30.9	77	24.6	0	1	270	0.00	30.312 
16:45	30.9	30.9	30.9	77	24.6	1	3	292	0.00	30.312 
16:50	30.7	30.7	30.7	77	24.4	1	3	248	0.00	30.312 
16:55	30.7	30.7	30.7	77	24.4	1	3	248	0.00	30.312 
17:00	30.7	30.7	30.7	77	24.4	1	3	315	0.00	30.322 
17:05	30.6	30.6	30.6	77	24.3	1	3	248	0.00	30.322 
17:10	30.6	30.6	30.6	77	24.3	0	2	315	0.00	30.322 
17:15	30.6	30.6	30.6	77	24.3	0	2	315	0.00	30.328 
17:20	30.6	30.6	30.6	78	24.6	0	1	315	0.00	30.328 
17:25	30.6	30.6	30.6	78	24.6	0	3	315	0.00	30.328 
17:30	30.6	30.6	30.6	78	24.6	0	1	270	0.00	30.331 
17:35	30.6	30.6	30.6	78	24.6	0	2	270	0.00	30.331 
17:40	30.6	30.6	30.6	78	24.6	0	1	270	0.00	30.331 
17:45	30.4	30.4	30.4	78	24.4	1	3	270	0.00	30.343 
17:50	30.4	30.4	30.4	77	24.1	1	2	270	0.00	30.343 
17:55	30.3	30.3	30.3	77	24.0	1	3	270	0.00	30.343 
18:00	30.3	30.3	30.3	77	24.0	0	3	270	0.00	30.346 
18:05	30.3	30.3	30.3	77	24.0	0	2	270	0.00	30.346 
18:10	30.1	30.1	30.1	77	23.8	0	2	270	0.00	30.346 
18:15	30.1	30.1	30.1	77	23.8	0	2	270	0.00	30.358 
18:20	30.1	30.1	30.1	77	23.8	0	3	270	0.00	30.358 
18:25	30.1	30.1	30.1	77	23.8	0	2	315	0.00	30.358 
18:30	30.1	30.1	30.1	77	23.8	0	2	315	0.00	30.362 
18:35	30.1	30.1	30.1	77	23.8	0	2	315	0.00	30.362 
18:40	30.1	30.1	30.1	77	23.8	0	1	315	0.00	30.362 
18:45	30.1	30.1	30.1	77	23.8	0	0	---	0.00	30.363 
18:50	30.1	30.1	30.1	78	24.1	0	2	315	0.00	30.363 
18:55	30.1	30.1	30.1	78	24.1	0	1	315	0.00	30.363 
19:00	30.1	30.1	30.1	78	24.1	0	2	315	0.00	30.374 
19:05	30.1	30.1	30.1	78	24.1	0	0	---	0.00	30.374 
19:10	30.1	30.1	30.1	79	24.4	0	1	315	0.00	30.374 
19:15	30.1	30.1	30.1	79	24.4	0	1	315	0.00	30.384 
19:20	30.1	30.1	30.1	79	24.4	0	2	315	0.00	30.384 
19:25	30.1	30.1	30.1	79	24.4	0	1	315	0.00	30.384 
19:30	30.1	30.1	30.1	79	24.4	0	1	315	0.00	30.388 
19:35	30.1	30.1	30.1	79	24.4	0	1	315	0.00	30.388 
19:40	30.1	30.1	30.1	79	24.4	0	1	315	0.00	30.388 
19:45	30.1	30.1	30.1	80	24.7	0	0	---	0.00	30.394 
19:50	30.0	30.0	30.0	80	24.6	0	0	---	0.00	30.394 
19:55	30.0	30.0	30.0	80	24.6	0	1	315	0.00	30.394 
20:00	30.0	30.0	30.0	80	24.6	0	1	315	0.00	30.401 
20:05	30.0	30.0	30.0	80	24.6	0	0	---	0.00	30.401 
20:10	30.0	30.0	30.0	80	24.6	0	0	---	0.00	30.401 
20:15	30.0	30.0	30.0	80	24.6	0	1	315	0.00	30.401 
20:20	30.0	30.0	30.0	80	24.6	0	0	---	0.00	30.401 
20:25	30.0	30.0	30.0	80	24.6	0	0	---	0.00	30.401 
20:30	30.0	30.0	30.0	80	24.6	0	0	---	0.00	30.394 
20:35	30.0	30.0	30.0	80	24.6	0	0	---	0.00	30.394 
20:40	30.0	30.0	30.0	80	24.6	0	0	---	0.00	30.394 
20:45	30.0	30.0	30.0	80	24.6	0	0	---	0.00	30.394 
20:50	30.0	30.0	30.0	80	24.6	0	0	---	0.00	30.394 
20:55	30.0	30.0	30.0	80	24.6	0	0	---	0.00	30.394 
21:00	30.0	30.0	30.0	80	24.6	0	0	---	0.00	30.399 
21:05	30.0	30.0	30.0	80	24.6	0	0	---	0.00	30.399 
21:10	30.0	30.0	30.0	80	24.6	0	1	315	0.00	30.399 
21:15	30.0	30.0	30.0	80	24.6	0	0	---	0.00	30.413 
21:20	30.0	30.0	30.0	80	24.6	0	0	---	0.00	30.413 
21:25	30.0	30.0	30.0	80	24.6	0	0	---	0.00	30.413 
21:30	30.0	30.0	30.0	80	24.6	0	0	---	0.00	30.424 
21:35	30.0	30.0	30.0	80	24.6	0	0	---	0.00	30.424 
21:40	30.0	30.0	30.0	80	24.6	0	0	---	0.00	30.424 
21:45	30.0	30.0	30.0	80	24.6	0	0	---	0.00	30.424 
21:50	30.0	30.0	30.0	80	24.6	0	2	315	0.00	30.424 
21:55	30.0	30.0	30.0	80	24.6	0	0	---	0.00	30.424 
22:00	30.0	30.0	30.0	80	24.6	0	0	---	0.00	30.427 
22:05	30.0	30.0	30.0	80	24.6	0	1	315	0.00	30.427 
22:10	29.8	29.8	29.8	80	24.4	0	0	---	0.00	30.427 
22:15	29.8	29.8	29.8	80	24.4	0	0	---	0.00	30.431 
22:20	29.8	29.8	29.8	80	24.4	0	0	---	0.00	30.431 
22:25	29.8	29.8	29.8	80	24.4	0	0	---	0.00	30.431 
22:30	29.8	29.8	29.8	80	24.4	0	0	---	0.00	30.425 
22:35	29.8	29.8	29.8	81	24.7	0	0	---	0.00	30.425 
22:40	29.7	29.7	29.7	81	24.6	0	0	---	0.00	30.425 
22:45	29.7	29.7	29.7	81	24.6	0	0	---	0.00	30.423 
22:50	29.7	29.7	29.7	81	24.6	0	0	---	0.00	30.423 
22:55	29.7	29.7	29.7	81	24.6	0	0	---	0.00	30.423 
23:00	29.7	29.7	29.7	81	24.6	0	0	---	0.00	30.423 
23:05	29.5	29.5	29.5	81	24.4	0	0	---	0.00	30.423 
23:10	29.5	29.5	29.5	81	24.4	0	0	---	0.00	30.423 
23:15	29.5	29.5	29.5	81	24.4	0	0	---	0.00	30.423 
23:20	29.5	29.5	29.5	81	24.4	0	0	---	0.00	30.423 
23:25	29.4	29.4	29.4	81	24.3	0	0	---	0.00	30.423 
23:30	29.4	29.4	29.4	81	24.3	0	0	---	0.00	30.423 
23:35	29.4	29.4	29.4	81	24.3	0	0	---	0.00	30.423 
23:40	29.4	29.4	29.4	81	24.3	0	0	---	0.00	30.423 
23:45	29.4	29.4	29.4	81	24.3	0	0	---	0.00	30.422 
23:50	29.4	29.4	29.4	81	24.3	0	0	---	0.00	30.422 
23:55	29.4	29.4	29.4	81	24.3	0	0	---	0.00	30.422 

CoCoRaHS
IN-AL-39
A2 Web Hosting
Creative Commons License
GoDaddy
search engine by freefind advanced

loaded 2018-11-16 00:08:29 • last modified 2010-11-18 10:43:29
Privacy PolicyDisclaimer
• wx.awcolley.com is powered by PmWiki v.2002016 •
• all content (unless otherwise noted) © 2018 A W Colley